Georgetown, TX (78626)

12:57 AM CDT on September 01, 2016 (GMT -0500)
Longhorn Weather Center | | Change Station

Elev 715 ft 30.63 °N, 97.66 °W | Updated 18 seconds ago

Clear
Clear
73.9 °F
Feels Like 72 °F
N
0.0
Wind Variable Wind from South
Gusts 62.9 mph

Today
High -- | Low -- °F
--% Chance of Precip.
Yesterday
High -- | Low -- °F
Precip. -- in
Pressure 29.98 in
Visibility 10.0 miles
Clouds Clear
Heat Index 72 °F
Dew Point 71 °F
Humidity 92%
Rainfall 0.02 in
Snow Depth Not available.
7:07 AM 7:52 PM
Waning Crescent, 0% visible
METAR KGTU 010555Z 00000KT 10SM CLR 24/21 A2998 RMK AO1 10320 20240 403400230 52007
Pressure 29.98 in
Visibility 10.0 miles
Clouds Clear
Heat Index 72 °F
Dew Point 71 °F
Humidity 92%
Rainfall 0.02 in
Snow Depth Not available.
7:07 AM 7:52 PM
Waning Crescent, 0% visible
METAR KGTU 010555Z 00000KT 10SM CLR 24/21 A2998 RMK AO1 10320 20240 403400230 52007

10-Day Weather Forecast

Almanac

Astronomy

Sep. 01, 2016 Rise Set
Actual Time
Civil Twilight
Nautical Twilight
Astronomical Twilight
Moon
Length of Visible Light
Length of Day
Tomorrow will be .
, % of the Moon is Illuminated

Today's Extremes

State Highs State Lows

Community

WunderPhotos

Upload Photos

1,936,313 photos uploaded!

WunderBlog® & News

Nearby

Air Quality

  Air Quality AQ Index Pollutant
Not available.

Snow Depth

Station Depth Elevation

Earthquake Activity

City Distance Mag. Time & Date
Minimum magnitude displayed is 2.5.

Coastal Water Temperatures

Place Temperature

Stations

Nearby Weather Stations

Station Location Temp. Windchill Dew Point Humidity Wind Precip. Elev Updated Type
                   

Watches & Warnings

There are currently no watches in effect.